sensor_id;sensor_type;location;lat;lon;timestamp;P1;durP1;ratioP1;P2;durP2;ratioP2
31764;SDS011;18338;53.240;8.798;2023-05-07T00:00:05;15.13;;;13.52;;
31764;SDS011;18338;53.240;8.798;2023-05-07T00:02:35;14.80;;;12.50;;
31764;SDS011;18338;53.240;8.798;2023-05-07T00:05:08;14.50;;;12.90;;
31764;SDS011;18338;53.240;8.798;2023-05-07T00:07:35;13.55;;;12.15;;
31764;SDS011;18338;53.240;8.798;2023-05-07T00:10:02;14.98;;;13.40;;
31764;SDS011;18338;53.240;8.798;2023-05-07T00:12:29;15.25;;;12.27;;
31764;SDS011;18338;53.240;8.798;2023-05-07T00:14:57;14.10;;;12.65;;
31764;SDS011;18338;53.240;8.798;2023-05-07T00:17:24;15.23;;;13.63;;
31764;SDS011;18338;53.240;8.798;2023-05-07T00:19:51;14.73;;;12.68;;
31764;SDS011;18338;53.240;8.798;2023-05-07T00:22:18;15.02;;;13.52;;
31764;SDS011;18338;53.240;8.798;2023-05-07T00:24:45;13.30;;;12.00;;
31764;SDS011;18338;53.240;8.798;2023-05-07T00:27:11;14.52;;;12.60;;
31764;SDS011;18338;53.240;8.798;2023-05-07T00:29:38;14.15;;;12.75;;
31764;SDS011;18338;53.240;8.798;2023-05-07T00:32:05;13.43;;;12.02;;
31764;SDS011;18338;53.240;8.798;2023-05-07T00:34:32;13.23;;;11.70;;
31764;SDS011;18338;53.240;8.798;2023-05-07T00:36:59;14.25;;;12.60;;
31764;SDS011;18338;53.240;8.798;2023-05-07T00:39:25;14.75;;;13.18;;
31764;SDS011;18338;53.240;8.798;2023-05-07T00:41:52;14.63;;;12.93;;
31764;SDS011;18338;53.240;8.798;2023-05-07T00:44:19;14.73;;;12.68;;
31764;SDS011;18338;53.240;8.798;2023-05-07T00:46:45;16.35;;;13.55;;
31764;SDS011;18338;53.240;8.798;2023-05-07T00:49:16;15.40;;;13.80;;
31764;SDS011;18338;53.240;8.798;2023-05-07T00:51:43;15.63;;;13.75;;
31764;SDS011;18338;53.240;8.798;2023-05-07T00:54:10;17.23;;;14.43;;
31764;SDS011;18338;53.240;8.798;2023-05-07T00:56:38;15.63;;;13.40;;
31764;SDS011;18338;53.240;8.798;2023-05-07T00:59:05;16.67;;;14.98;;
31764;SDS011;18338;53.240;8.798;2023-05-07T01:01:32;15.95;;;14.25;;
31764;SDS011;18338;53.240;8.798;2023-05-07T01:03:59;16.17;;;14.48;;
31764;SDS011;18338;53.240;8.798;2023-05-07T01:06:26;15.00;;;13.38;;
31764;SDS011;18338;53.240;8.798;2023-05-07T01:08:55;16.40;;;14.68;;
31764;SDS011;18338;53.240;8.798;2023-05-07T01:11:23;15.65;;;13.60;;
31764;SDS011;18338;53.240;8.798;2023-05-07T01:13:52;15.80;;;14.18;;
31764;SDS011;18338;53.240;8.798;2023-05-07T01:16:19;15.77;;;14.18;;
31764;SDS011;18338;53.240;8.798;2023-05-07T01:18:46;15.10;;;13.48;;
31764;SDS011;18338;53.240;8.798;2023-05-07T01:21:15;13.70;;;12.25;;
31764;SDS011;18338;53.240;8.798;2023-05-07T01:23:44;14.70;;;13.02;;
31764;SDS011;18338;53.240;8.798;2023-05-07T01:26:12;16.58;;;14.55;;
31764;SDS011;18338;53.240;8.798;2023-05-07T01:28:39;15.70;;;14.02;;
31764;SDS011;18338;53.240;8.798;2023-05-07T01:31:05;14.85;;;13.05;;
31764;SDS011;18338;53.240;8.798;2023-05-07T01:33:34;15.90;;;13.50;;
31764;SDS011;18338;53.240;8.798;2023-05-07T01:36:02;16.45;;;14.73;;
31764;SDS011;18338;53.240;8.798;2023-05-07T01:38:32;14.25;;;12.75;;
31764;SDS011;18338;53.240;8.798;2023-05-07T01:40:59;14.98;;;13.38;;
31764;SDS011;18338;53.240;8.798;2023-05-07T01:43:26;14.85;;;13.27;;
31764;SDS011;18338;53.240;8.798;2023-05-07T01:45:52;15.13;;;13.55;;
31764;SDS011;18338;53.240;8.798;2023-05-07T01:48:20;14.65;;;13.05;;
31764;SDS011;18338;53.240;8.798;2023-05-07T01:50:47;14.23;;;12.57;;
31764;SDS011;18338;53.240;8.798;2023-05-07T01:53:14;16.25;;;13.73;;
31764;SDS011;18338;53.240;8.798;2023-05-07T01:55:41;14.63;;;12.63;;
31764;SDS011;18338;53.240;8.798;2023-05-07T01:58:07;15.05;;;13.30;;
31764;SDS011;18338;53.240;8.798;2023-05-07T02:00:34;14.18;;;12.77;;
31764;SDS011;18338;53.240;8.798;2023-05-07T02:03:01;14.95;;;13.45;;
31764;SDS011;18338;53.240;8.798;2023-05-07T02:05:28;14.90;;;12.82;;
31764;SDS011;18338;53.240;8.798;2023-05-07T02:07:54;14.85;;;13.13;;
31764;SDS011;18338;53.240;8.798;2023-05-07T02:10:21;14.55;;;12.75;;
31764;SDS011;18338;53.240;8.798;2023-05-07T02:12:47;14.57;;;13.07;;
31764;SDS011;18338;53.240;8.798;2023-05-07T02:15:15;15.65;;;12.60;;
31764;SDS011;18338;53.240;8.798;2023-05-07T02:17:57;14.90;;;13.25;;
31764;SDS011;18338;53.240;8.798;2023-05-07T02:20:26;15.15;;;13.05;;
31764;SDS011;18338;53.240;8.798;2023-05-07T02:22:53;15.88;;;13.57;;
31764;SDS011;18338;53.240;8.798;2023-05-07T02:25:20;16.00;;;12.85;;
31764;SDS011;18338;53.240;8.798;2023-05-07T02:27:47;15.48;;;12.98;;
31764;SDS011;18338;53.240;8.798;2023-05-07T02:30:14;14.48;;;12.98;;
31764;SDS011;18338;53.240;8.798;2023-05-07T02:32:41;16.73;;;12.52;;
31764;SDS011;18338;53.240;8.798;2023-05-07T02:35:07;14.27;;;12.20;;
31764;SDS011;18338;53.240;8.798;2023-05-07T02:37:34;14.18;;;12.40;;
31764;SDS011;18338;53.240;8.798;2023-05-07T02:40:01;14.20;;;11.88;;
31764;SDS011;18338;53.240;8.798;2023-05-07T02:42:30;14.43;;;12.65;;
31764;SDS011;18338;53.240;8.798;2023-05-07T02:44:57;14.73;;;11.60;;
31764;SDS011;18338;53.240;8.798;2023-05-07T02:47:24;16.30;;;12.50;;
31764;SDS011;18338;53.240;8.798;2023-05-07T02:49:53;14.93;;;12.23;;
31764;SDS011;18338;53.240;8.798;2023-05-07T02:52:21;14.10;;;12.02;;
31764;SDS011;18338;53.240;8.798;2023-05-07T02:54:48;13.73;;;12.07;;
31764;SDS011;18338;53.240;8.798;2023-05-07T02:57:14;17.30;;;12.27;;
31764;SDS011;18338;53.240;8.798;2023-05-07T02:59:41;13.98;;;12.40;;
31764;SDS011;18338;53.240;8.798;2023-05-07T03:02:08;16.60;;;12.93;;
31764;SDS011;18338;53.240;8.798;2023-05-07T03:04:36;13.88;;;12.15;;
31764;SDS011;18338;53.240;8.798;2023-05-07T03:07:03;15.23;;;11.65;;
31764;SDS011;18338;53.240;8.798;2023-05-07T03:09:31;14.30;;;11.50;;
31764;SDS011;18338;53.240;8.798;2023-05-07T03:11:57;14.23;;;12.02;;
31764;SDS011;18338;53.240;8.798;2023-05-07T03:14:24;14.35;;;11.90;;
31764;SDS011;18338;53.240;8.798;2023-05-07T03:16:50;13.65;;;12.25;;
31764;SDS011;18338;53.240;8.798;2023-05-07T03:19:17;13.77;;;12.20;;
31764;SDS011;18338;53.240;8.798;2023-05-07T03:21:44;13.10;;;11.45;;
31764;SDS011;18338;53.240;8.798;2023-05-07T03:24:11;13.23;;;11.70;;
31764;SDS011;18338;53.240;8.798;2023-05-07T03:26:37;13.43;;;11.82;;
31764;SDS011;18338;53.240;8.798;2023-05-07T03:29:05;14.27;;;12.00;;
31764;SDS011;18338;53.240;8.798;2023-05-07T03:31:31;13.88;;;11.85;;
31764;SDS011;18338;53.240;8.798;2023-05-07T03:33:58;15.45;;;11.90;;
31764;SDS011;18338;53.240;8.798;2023-05-07T03:36:25;14.15;;;12.38;;
31764;SDS011;18338;53.240;8.798;2023-05-07T03:38:54;14.32;;;11.70;;
31764;SDS011;18338;53.240;8.798;2023-05-07T03:41:21;15.45;;;12.15;;
31764;SDS011;18338;53.240;8.798;2023-05-07T03:43:48;13.05;;;10.85;;
31764;SDS011;18338;53.240;8.798;2023-05-07T03:46:14;13.57;;;11.77;;
31764;SDS011;18338;53.240;8.798;2023-05-07T03:48:41;13.82;;;10.88;;
31764;SDS011;18338;53.240;8.798;2023-05-07T03:51:08;12.27;;;10.40;;
31764;SDS011;18338;53.240;8.798;2023-05-07T03:53:34;12.23;;;10.75;;
31764;SDS011;18338;53.240;8.798;2023-05-07T03:56:01;12.02;;;10.82;;
31764;SDS011;18338;53.240;8.798;2023-05-07T03:58:28;12.48;;;10.63;;
31764;SDS011;18338;53.240;8.798;2023-05-07T04:00:55;12.27;;;10.60;;
31764;SDS011;18338;53.240;8.798;2023-05-07T04:03:22;10.90;;;9.77;;
31764;SDS011;18338;53.240;8.798;2023-05-07T04:05:49;11.70;;;9.77;;
31764;SDS011;18338;53.240;8.798;2023-05-07T04:08:16;12.80;;;11.43;;
31764;SDS011;18338;53.240;8.798;2023-05-07T04:10:42;11.38;;;9.88;;
31764;SDS011;18338;53.240;8.798;2023-05-07T04:13:09;12.70;;;10.43;;
31764;SDS011;18338;53.240;8.798;2023-05-07T04:15:36;12.05;;;10.77;;
31764;SDS011;18338;53.240;8.798;2023-05-07T04:18:02;11.00;;;9.90;;
31764;SDS011;18338;53.240;8.798;2023-05-07T04:20:29;11.23;;;10.10;;
31764;SDS011;18338;53.240;8.798;2023-05-07T04:22:56;12.27;;;10.98;;
31764;SDS011;18338;53.240;8.798;2023-05-07T04:25:23;12.45;;;10.57;;
31764;SDS011;18338;53.240;8.798;2023-05-07T04:27:52;10.80;;;9.63;;
31764;SDS011;18338;53.240;8.798;2023-05-07T04:30:22;11.65;;;9.98;;
31764;SDS011;18338;53.240;8.798;2023-05-07T04:32:49;13.13;;;11.10;;
31764;SDS011;18338;53.240;8.798;2023-05-07T04:35:15;12.32;;;11.02;;
31764;SDS011;18338;53.240;8.798;2023-05-07T04:37:42;11.60;;;10.38;;
31764;SDS011;18338;53.240;8.798;2023-05-07T04:40:09;12.32;;;10.77;;
31764;SDS011;18338;53.240;8.798;2023-05-07T04:42:37;11.35;;;10.15;;
31764;SDS011;18338;53.240;8.798;2023-05-07T04:45:04;11.23;;;10.02;;
31764;SDS011;18338;53.240;8.798;2023-05-07T04:47:31;11.15;;;9.88;;
31764;SDS011;18338;53.240;8.798;2023-05-07T04:49:58;10.88;;;9.70;;
31764;SDS011;18338;53.240;8.798;2023-05-07T04:52:25;10.65;;;9.55;;
31764;SDS011;18338;53.240;8.798;2023-05-07T04:54:52;11.70;;;9.88;;
31764;SDS011;18338;53.240;8.798;2023-05-07T04:57:19;10.02;;;8.98;;
31764;SDS011;18338;53.240;8.798;2023-05-07T04:59:46;10.68;;;9.57;;
31764;SDS011;18338;53.240;8.798;2023-05-07T05:02:12;10.65;;;9.55;;
31764;SDS011;18338;53.240;8.798;2023-05-07T05:04:39;11.90;;;9.30;;
31764;SDS011;18338;53.240;8.798;2023-05-07T05:07:06;10.45;;;9.32;;
31764;SDS011;18338;53.240;8.798;2023-05-07T05:09:32;9.80;;;8.80;;
31764;SDS011;18338;53.240;8.798;2023-05-07T05:11:59;10.35;;;9.25;;
31764;SDS011;18338;53.240;8.798;2023-05-07T05:14:26;10.57;;;9.48;;
31764;SDS011;18338;53.240;8.798;2023-05-07T05:16:52;9.35;;;8.45;;
31764;SDS011;18338;53.240;8.798;2023-05-07T05:19:19;9.70;;;8.68;;
31764;SDS011;18338;53.240;8.798;2023-05-07T05:21:46;10.98;;;9.48;;
31764;SDS011;18338;53.240;8.798;2023-05-07T05:24:12;10.25;;;9.20;;
31764;SDS011;18338;53.240;8.798;2023-05-07T05:26:39;10.10;;;9.10;;
31764;SDS011;18338;53.240;8.798;2023-05-07T05:29:05;10.43;;;9.23;;
31764;SDS011;18338;53.240;8.798;2023-05-07T05:31:33;10.63;;;9.52;;
31764;SDS011;18338;53.240;8.798;2023-05-07T05:34:00;10.43;;;9.32;;
31764;SDS011;18338;53.240;8.798;2023-05-07T05:36:28;11.25;;;9.63;;
31764;SDS011;18338;53.240;8.798;2023-05-07T05:38:55;10.02;;;9.02;;
31764;SDS011;18338;53.240;8.798;2023-05-07T05:41:21;9.18;;;8.25;;
31764;SDS011;18338;53.240;8.798;2023-05-07T05:43:48;9.05;;;8.15;;
31764;SDS011;18338;53.240;8.798;2023-05-07T05:46:15;8.85;;;8.00;;
31764;SDS011;18338;53.240;8.798;2023-05-07T05:48:41;8.25;;;7.50;;
31764;SDS011;18338;53.240;8.798;2023-05-07T05:51:08;7.43;;;6.72;;
31764;SDS011;18338;53.240;8.798;2023-05-07T05:53:34;7.13;;;6.43;;
31764;SDS011;18338;53.240;8.798;2023-05-07T05:56:01;7.05;;;6.45;;
31764;SDS011;18338;53.240;8.798;2023-05-07T05:58:28;8.77;;;7.63;;
31764;SDS011;18338;53.240;8.798;2023-05-07T06:00:54;7.30;;;6.60;;
31764;SDS011;18338;53.240;8.798;2023-05-07T06:03:22;8.52;;;7.38;;
31764;SDS011;18338;53.240;8.798;2023-05-07T06:05:49;7.78;;;7.00;;
31764;SDS011;18338;53.240;8.798;2023-05-07T06:08:16;7.25;;;6.60;;
31764;SDS011;18338;53.240;8.798;2023-05-07T06:10:43;7.50;;;6.80;;
31764;SDS011;18338;53.240;8.798;2023-05-07T06:13:10;7.85;;;7.13;;
31764;SDS011;18338;53.240;8.798;2023-05-07T06:15:36;7.65;;;7.00;;
31764;SDS011;18338;53.240;8.798;2023-05-07T06:18:03;8.38;;;7.50;;
31764;SDS011;18338;53.240;8.798;2023-05-07T06:20:30;7.47;;;6.78;;
31764;SDS011;18338;53.240;8.798;2023-05-07T06:22:56;8.32;;;7.60;;
31764;SDS011;18338;53.240;8.798;2023-05-07T06:25:23;7.45;;;6.85;;
31764;SDS011;18338;53.240;8.798;2023-05-07T06:27:49;7.43;;;6.82;;
31764;SDS011;18338;53.240;8.798;2023-05-07T06:30:16;7.95;;;7.10;;
31764;SDS011;18338;53.240;8.798;2023-05-07T06:32:43;7.45;;;6.75;;
31764;SDS011;18338;53.240;8.798;2023-05-07T06:35:09;7.38;;;6.60;;
31764;SDS011;18338;53.240;8.798;2023-05-07T06:37:36;7.63;;;6.93;;
31764;SDS011;18338;53.240;8.798;2023-05-07T06:40:08;8.65;;;6.05;;
31764;SDS011;18338;53.240;8.798;2023-05-07T06:42:36;7.10;;;6.50;;
31764;SDS011;18338;53.240;8.798;2023-05-07T06:45:03;6.60;;;6.05;;
31764;SDS011;18338;53.240;8.798;2023-05-07T06:47:31;6.28;;;5.72;;
31764;SDS011;18338;53.240;8.798;2023-05-07T06:49:57;5.78;;;5.18;;
31764;SDS011;18338;53.240;8.798;2023-05-07T06:52:24;6.25;;;5.75;;
31764;SDS011;18338;53.240;8.798;2023-05-07T06:54:51;6.63;;;6.03;;
31764;SDS011;18338;53.240;8.798;2023-05-07T06:57:17;6.45;;;5.85;;
31764;SDS011;18338;53.240;8.798;2023-05-07T06:59:44;5.75;;;5.28;;
31764;SDS011;18338;53.240;8.798;2023-05-07T07:02:10;5.95;;;5.35;;
31764;SDS011;18338;53.240;8.798;2023-05-07T07:04:37;5.47;;;4.97;;
31764;SDS011;18338;53.240;8.798;2023-05-07T07:07:05;6.15;;;5.38;;
31764;SDS011;18338;53.240;8.798;2023-05-07T07:09:32;6.43;;;5.82;;
31764;SDS011;18338;53.240;8.798;2023-05-07T07:11:58;6.50;;;5.90;;
31764;SDS011;18338;53.240;8.798;2023-05-07T07:14:25;6.47;;;5.90;;
31764;SDS011;18338;53.240;8.798;2023-05-07T07:16:52;5.82;;;4.97;;
31764;SDS011;18338;53.240;8.798;2023-05-07T07:19:19;5.90;;;5.40;;
31764;SDS011;18338;53.240;8.798;2023-05-07T07:21:46;5.03;;;4.63;;
31764;SDS011;18338;53.240;8.798;2023-05-07T07:24:13;5.53;;;5.03;;
31764;SDS011;18338;53.240;8.798;2023-05-07T07:26:45;5.30;;;4.88;;
31764;SDS011;18338;53.240;8.798;2023-05-07T07:29:12;5.32;;;4.82;;
31764;SDS011;18338;53.240;8.798;2023-05-07T07:31:39;5.30;;;4.90;;
31764;SDS011;18338;53.240;8.798;2023-05-07T07:34:06;5.00;;;4.60;;
31764;SDS011;18338;53.240;8.798;2023-05-07T07:36:33;5.00;;;4.50;;
31764;SDS011;18338;53.240;8.798;2023-05-07T07:39:11;5.13;;;4.72;;
31764;SDS011;18338;53.240;8.798;2023-05-07T07:41:38;4.68;;;4.28;;
31764;SDS011;18338;53.240;8.798;2023-05-07T07:44:05;5.45;;;4.95;;
31764;SDS011;18338;53.240;8.798;2023-05-07T07:46:33;4.68;;;4.28;;
31764;SDS011;18338;53.240;8.798;2023-05-07T07:49:00;5.18;;;4.70;;
31764;SDS011;18338;53.240;8.798;2023-05-07T07:51:28;5.15;;;4.65;;
31764;SDS011;18338;53.240;8.798;2023-05-07T07:53:54;4.65;;;4.25;;
31764;SDS011;18338;53.240;8.798;2023-05-07T07:56:23;5.25;;;4.75;;
31764;SDS011;18338;53.240;8.798;2023-05-07T07:58:50;5.38;;;4.88;;
31764;SDS011;18338;53.240;8.798;2023-05-07T08:01:17;5.03;;;4.63;;
31764;SDS011;18338;53.240;8.798;2023-05-07T08:03:43;5.18;;;4.68;;
31764;SDS011;18338;53.240;8.798;2023-05-07T08:06:10;5.28;;;4.80;;
31764;SDS011;18338;53.240;8.798;2023-05-07T08:08:37;5.00;;;4.60;;
31764;SDS011;18338;53.240;8.798;2023-05-07T08:11:03;4.78;;;4.30;;
31764;SDS011;18338;53.240;8.798;2023-05-07T08:13:30;4.55;;;4.25;;
31764;SDS011;18338;53.240;8.798;2023-05-07T08:15:57;5.45;;;4.95;;
31764;SDS011;18338;53.240;8.798;2023-05-07T08:18:24;5.43;;;4.93;;
31764;SDS011;18338;53.240;8.798;2023-05-07T08:20:52;4.97;;;4.57;;
31764;SDS011;18338;53.240;8.798;2023-05-07T08:23:20;5.05;;;4.55;;
31764;SDS011;18338;53.240;8.798;2023-05-07T08:25:48;5.47;;;5.07;;
31764;SDS011;18338;53.240;8.798;2023-05-07T08:28:19;5.15;;;4.72;;
31764;SDS011;18338;53.240;8.798;2023-05-07T08:30:47;5.50;;;5.00;;
31764;SDS011;18338;53.240;8.798;2023-05-07T08:33:14;5.82;;;5.32;;
31764;SDS011;18338;53.240;8.798;2023-05-07T08:35:45;5.47;;;4.75;;
31764;SDS011;18338;53.240;8.798;2023-05-07T08:38:12;5.50;;;5.00;;
31764;SDS011;18338;53.240;8.798;2023-05-07T08:40:39;5.47;;;4.97;;
31764;SDS011;18338;53.240;8.798;2023-05-07T08:43:07;5.10;;;4.70;;
31764;SDS011;18338;53.240;8.798;2023-05-07T08:45:42;5.22;;;4.82;;
31764;SDS011;18338;53.240;8.798;2023-05-07T08:48:15;5.28;;;4.78;;
31764;SDS011;18338;53.240;8.798;2023-05-07T08:50:42;5.38;;;4.88;;
31764;SDS011;18338;53.240;8.798;2023-05-07T08:53:11;5.68;;;5.18;;
31764;SDS011;18338;53.240;8.798;2023-05-07T08:55:38;5.35;;;4.93;;
31764;SDS011;18338;53.240;8.798;2023-05-07T08:58:05;5.57;;;5.13;;
31764;SDS011;18338;53.240;8.798;2023-05-07T09:00:33;5.80;;;5.30;;
31764;SDS011;18338;53.240;8.798;2023-05-07T09:03:00;5.22;;;4.82;;
31764;SDS011;18338;53.240;8.798;2023-05-07T09:05:27;4.47;;;4.10;;
31764;SDS011;18338;53.240;8.798;2023-05-07T09:07:53;5.43;;;4.97;;
31764;SDS011;18338;53.240;8.798;2023-05-07T09:10:23;5.65;;;4.10;;
31764;SDS011;18338;53.240;8.798;2023-05-07T09:12:52;5.00;;;4.60;;
31764;SDS011;18338;53.240;8.798;2023-05-07T09:15:19;4.80;;;4.28;;
31764;SDS011;18338;53.240;8.798;2023-05-07T09:17:46;4.53;;;4.13;;
31764;SDS011;18338;53.240;8.798;2023-05-07T09:20:13;4.90;;;4.50;;
31764;SDS011;18338;53.240;8.798;2023-05-07T09:22:40;5.38;;;4.88;;
31764;SDS011;18338;53.240;8.798;2023-05-07T09:25:07;4.50;;;4.07;;
31764;SDS011;18338;53.240;8.798;2023-05-07T09:27:34;5.03;;;4.55;;
31764;SDS011;18338;53.240;8.798;2023-05-07T09:30:05;4.70;;;4.30;;
31764;SDS011;18338;53.240;8.798;2023-05-07T09:32:35;5.07;;;4.68;;
31764;SDS011;18338;53.240;8.798;2023-05-07T09:35:06;4.90;;;4.50;;
31764;SDS011;18338;53.240;8.798;2023-05-07T09:37:43;5.28;;;4.85;;
31764;SDS011;18338;53.240;8.798;2023-05-07T09:40:20;4.20;;;3.80;;
31764;SDS011;18338;53.240;8.798;2023-05-07T09:42:48;5.10;;;4.57;;
31764;SDS011;18338;53.240;8.798;2023-05-07T09:45:16;4.75;;;4.35;;
31764;SDS011;18338;53.240;8.798;2023-05-07T09:47:56;4.65;;;4.25;;
31764;SDS011;18338;53.240;8.798;2023-05-07T09:50:26;4.22;;;3.83;;
31764;SDS011;18338;53.240;8.798;2023-05-07T09:52:56;5.10;;;4.60;;
31764;SDS011;18338;53.240;8.798;2023-05-07T09:55:23;5.20;;;4.70;;
31764;SDS011;18338;53.240;8.798;2023-05-07T09:57:51;4.72;;;4.32;;
31764;SDS011;18338;53.240;8.798;2023-05-07T10:00:19;5.30;;;4.85;;
31764;SDS011;18338;53.240;8.798;2023-05-07T10:02:51;5.13;;;4.45;;
31764;SDS011;18338;53.240;8.798;2023-05-07T10:05:19;5.22;;;4.72;;
31764;SDS011;18338;53.240;8.798;2023-05-07T10:07:49;5.70;;;4.95;;
31764;SDS011;18338;53.240;8.798;2023-05-07T10:10:17;5.50;;;5.00;;
31764;SDS011;18338;53.240;8.798;2023-05-07T10:12:45;5.53;;;5.03;;
31764;SDS011;18338;53.240;8.798;2023-05-07T10:15:13;5.72;;;5.22;;
31764;SDS011;18338;53.240;8.798;2023-05-07T10:17:40;5.72;;;5.22;;
31764;SDS011;18338;53.240;8.798;2023-05-07T10:20:07;6.10;;;5.60;;
31764;SDS011;18338;53.240;8.798;2023-05-07T10:22:38;5.72;;;5.22;;
31764;SDS011;18338;53.240;8.798;2023-05-07T10:25:13;6.60;;;6.00;;
31764;SDS011;18338;53.240;8.798;2023-05-07T10:27:44;6.07;;;5.50;;
31764;SDS011;18338;53.240;8.798;2023-05-07T10:32:47;6.13;;;5.63;;
31764;SDS011;18338;53.240;8.798;2023-05-07T10:35:21;5.47;;;5.07;;
31764;SDS011;18338;53.240;8.798;2023-05-07T10:37:50;5.70;;;5.20;;
31764;SDS011;18338;53.240;8.798;2023-05-07T10:40:17;5.22;;;4.72;;
31764;SDS011;18338;53.240;8.798;2023-05-07T10:42:56;5.18;;;4.68;;
31764;SDS011;18338;53.240;8.798;2023-05-07T10:45:25;5.55;;;5.00;;
31764;SDS011;18338;53.240;8.798;2023-05-07T10:48:05;5.43;;;4.93;;
31764;SDS011;18338;53.240;8.798;2023-05-07T10:51:17;5.70;;;4.90;;
31764;SDS011;18338;53.240;8.798;2023-05-07T10:53:45;4.72;;;4.32;;
31764;SDS011;18338;53.240;8.798;2023-05-07T10:58:44;6.03;;;4.95;;
31764;SDS011;18338;53.240;8.798;2023-05-07T11:01:12;5.30;;;4.85;;
31764;SDS011;18338;53.240;8.798;2023-05-07T11:04:12;5.22;;;4.70;;
31764;SDS011;18338;53.240;8.798;2023-05-07T11:07:08;5.47;;;4.97;;
31764;SDS011;18338;53.240;8.798;2023-05-07T11:15:09;4.82;;;4.43;;
31764;SDS011;18338;53.240;8.798;2023-05-07T11:20:20;5.25;;;4.47;;
31764;SDS011;18338;53.240;8.798;2023-05-07T11:26:03;5.22;;;4.72;;
31764;SDS011;18338;53.240;8.798;2023-05-07T11:28:32;5.25;;;4.75;;
31764;SDS011;18338;53.240;8.798;2023-05-07T11:31:03;4.80;;;4.40;;
31764;SDS011;18338;53.240;8.798;2023-05-07T11:33:31;4.65;;;4.25;;
31764;SDS011;18338;53.240;8.798;2023-05-07T11:35:58;4.80;;;4.40;;
31764;SDS011;18338;53.240;8.798;2023-05-07T11:38:26;5.05;;;4.55;;
31764;SDS011;18338;53.240;8.798;2023-05-07T11:40:56;4.93;;;4.13;;
31764;SDS011;18338;53.240;8.798;2023-05-07T11:43:24;4.32;;;4.00;;
31764;SDS011;18338;53.240;8.798;2023-05-07T11:45:52;5.50;;;5.05;;
31764;SDS011;18338;53.240;8.798;2023-05-07T11:48:20;4.28;;;3.88;;
31764;SDS011;18338;53.240;8.798;2023-05-07T11:53:50;5.53;;;4.70;;
31764;SDS011;18338;53.240;8.798;2023-05-07T11:56:18;4.55;;;4.15;;
31764;SDS011;18338;53.240;8.798;2023-05-07T11:58:53;4.70;;;4.28;;
31764;SDS011;18338;53.240;8.798;2023-05-07T12:01:25;4.90;;;4.40;;
31764;SDS011;18338;53.240;8.798;2023-05-07T12:06:28;4.43;;;4.03;;
31764;SDS011;18338;53.240;8.798;2023-05-07T12:08:54;4.95;;;4.55;;
31764;SDS011;18338;53.240;8.798;2023-05-07T12:11:24;4.50;;;4.10;;
31764;SDS011;18338;53.240;8.798;2023-05-07T12:13:52;4.07;;;3.58;;
31764;SDS011;18338;53.240;8.798;2023-05-07T12:16:24;4.38;;;3.97;;
31764;SDS011;18338;53.240;8.798;2023-05-07T12:18:51;4.13;;;3.72;;
31764;SDS011;18338;53.240;8.798;2023-05-07T12:21:20;4.22;;;3.92;;
31764;SDS011;18338;53.240;8.798;2023-05-07T12:23:48;4.57;;;4.18;;
31764;SDS011;18338;53.240;8.798;2023-05-07T12:26:14;3.90;;;3.55;;
31764;SDS011;18338;53.240;8.798;2023-05-07T12:28:41;4.95;;;4.00;;
31764;SDS011;18338;53.240;8.798;2023-05-07T12:31:08;3.90;;;3.60;;
31764;SDS011;18338;53.240;8.798;2023-05-07T12:33:35;4.53;;;4.13;;
31764;SDS011;18338;53.240;8.798;2023-05-07T12:36:03;4.60;;;3.70;;
31764;SDS011;18338;53.240;8.798;2023-05-07T12:38:36;5.97;;;4.10;;
31764;SDS011;18338;53.240;8.798;2023-05-07T12:41:07;4.10;;;3.75;;
31764;SDS011;18338;53.240;8.798;2023-05-07T12:43:36;4.20;;;3.80;;
31764;SDS011;18338;53.240;8.798;2023-05-07T12:46:03;3.33;;;3.03;;
31764;SDS011;18338;53.240;8.798;2023-05-07T12:48:32;6.20;;;3.47;;
31764;SDS011;18338;53.240;8.798;2023-05-07T12:50:59;3.70;;;3.40;;
31764;SDS011;18338;53.240;8.798;2023-05-07T12:53:27;3.13;;;2.83;;
31764;SDS011;18338;53.240;8.798;2023-05-07T12:55:55;4.38;;;4.00;;
31764;SDS011;18338;53.240;8.798;2023-05-07T12:58:25;3.95;;;3.55;;
31764;SDS011;18338;53.240;8.798;2023-05-07T13:00:53;4.97;;;3.60;;
31764;SDS011;18338;53.240;8.798;2023-05-07T13:03:29;3.95;;;3.65;;
31764;SDS011;18338;53.240;8.798;2023-05-07T13:06:01;4.35;;;3.83;;
31764;SDS011;18338;53.240;8.798;2023-05-07T13:08:33;3.65;;;3.30;;
31764;SDS011;18338;53.240;8.798;2023-05-07T13:11:01;4.35;;;4.05;;
31764;SDS011;18338;53.240;8.798;2023-05-07T13:13:33;3.53;;;3.22;;
31764;SDS011;18338;53.240;8.798;2023-05-07T13:16:01;3.97;;;3.00;;
31764;SDS011;18338;53.240;8.798;2023-05-07T13:18:32;4.03;;;3.40;;
31764;SDS011;18338;53.240;8.798;2023-05-07T13:20:59;2.97;;;2.78;;
31764;SDS011;18338;53.240;8.798;2023-05-07T13:23:27;3.35;;;3.05;;
31764;SDS011;18338;53.240;8.798;2023-05-07T13:25:54;3.00;;;2.80;;
31764;SDS011;18338;53.240;8.798;2023-05-07T13:28:23;3.15;;;2.95;;
31764;SDS011;18338;53.240;8.798;2023-05-07T13:30:50;3.22;;;2.97;;
31764;SDS011;18338;53.240;8.798;2023-05-07T13:33:18;2.90;;;2.70;;
31764;SDS011;18338;53.240;8.798;2023-05-07T13:35:44;2.90;;;2.70;;
31764;SDS011;18338;53.240;8.798;2023-05-07T13:38:11;2.90;;;2.70;;
31764;SDS011;18338;53.240;8.798;2023-05-07T13:40:38;3.70;;;2.50;;
31764;SDS011;18338;53.240;8.798;2023-05-07T13:43:05;3.20;;;2.58;;
31764;SDS011;18338;53.240;8.798;2023-05-07T13:45:32;5.28;;;2.85;;
31764;SDS011;18338;53.240;8.798;2023-05-07T13:48:00;3.10;;;2.85;;
31764;SDS011;18338;53.240;8.798;2023-05-07T13:50:26;3.20;;;2.90;;
31764;SDS011;18338;53.240;8.798;2023-05-07T13:52:55;3.30;;;3.00;;
31764;SDS011;18338;53.240;8.798;2023-05-07T13:55:21;3.28;;;2.90;;
31764;SDS011;18338;53.240;8.798;2023-05-07T13:57:59;2.75;;;2.55;;
31764;SDS011;18338;53.240;8.798;2023-05-07T14:00:32;2.90;;;2.70;;
31764;SDS011;18338;53.240;8.798;2023-05-07T14:02:59;2.72;;;2.53;;
31764;SDS011;18338;53.240;8.798;2023-05-07T14:05:25;2.88;;;2.67;;
31764;SDS011;18338;53.240;8.798;2023-05-07T14:07:56;2.50;;;2.28;;
31764;SDS011;18338;53.240;8.798;2023-05-07T14:10:24;2.97;;;2.40;;
31764;SDS011;18338;53.240;8.798;2023-05-07T14:12:50;2.65;;;2.25;;
31764;SDS011;18338;53.240;8.798;2023-05-07T14:15:18;4.28;;;2.80;;
31764;SDS011;18338;53.240;8.798;2023-05-07T14:17:45;2.30;;;2.10;;
31764;SDS011;18338;53.240;8.798;2023-05-07T14:20:12;3.20;;;2.63;;
31764;SDS011;18338;53.240;8.798;2023-05-07T14:22:39;3.22;;;2.92;;
31764;SDS011;18338;53.240;8.798;2023-05-07T14:25:06;3.20;;;2.83;;
31764;SDS011;18338;53.240;8.798;2023-05-07T14:27:33;2.72;;;2.53;;
31764;SDS011;18338;53.240;8.798;2023-05-07T14:30:00;2.90;;;2.70;;
31764;SDS011;18338;53.240;8.798;2023-05-07T14:32:27;2.90;;;2.70;;
31764;SDS011;18338;53.240;8.798;2023-05-07T14:34:54;12.32;;;3.20;;
31764;SDS011;18338;53.240;8.798;2023-05-07T14:37:20;3.38;;;3.08;;
31764;SDS011;18338;53.240;8.798;2023-05-07T14:39:47;2.85;;;2.63;;
31764;SDS011;18338;53.240;8.798;2023-05-07T14:42:16;2.85;;;2.65;;
31764;SDS011;18338;53.240;8.798;2023-05-07T14:44:43;3.22;;;2.67;;
31764;SDS011;18338;53.240;8.798;2023-05-07T14:47:11;3.00;;;2.75;;
31764;SDS011;18338;53.240;8.798;2023-05-07T14:49:38;3.30;;;3.00;;
31764;SDS011;18338;53.240;8.798;2023-05-07T14:52:05;2.70;;;2.50;;
31764;SDS011;18338;53.240;8.798;2023-05-07T14:54:33;3.50;;;3.20;;
31764;SDS011;18338;53.240;8.798;2023-05-07T14:57:04;3.40;;;3.10;;
31764;SDS011;18338;53.240;8.798;2023-05-07T14:59:32;3.45;;;3.15;;
31764;SDS011;18338;53.240;8.798;2023-05-07T15:01:59;3.20;;;2.90;;
31764;SDS011;18338;53.240;8.798;2023-05-07T15:04:28;3.47;;;3.08;;